LEBB/BIO METAR and TAF weather

Enter ICAO airport designator
Station Type Date Time Source
LEBB METAR 2021/07/26 17:00 UTC NOAA

LEBB 261700Z 32006KT 290V350 9999 FEW034 24/14 Q1017 NOSIG


Station Type Date Time Source
LEBB Decoded METAR 2021/07/26 17:00 UTC NOAA

Bilbao / Sondica, Spain (LEBB) 43-18N 002-56W 37M
Jul 26, 2021 - 01:00 PM EDT / 2021.07.26 1700 UTC
Wind: from the NW (320 degrees) at 7 MPH (6 KT) (direction variable):0
Visibility: greater than 7 mile(s):0
Sky conditions: mostly clear
Temperature: 75 F (24 C)
Dew Point: 57 F (14 C)
Relative Humidity: 53%
Pressure (altimeter): 30.03 in. Hg (1017 hPa)
ob: LEBB 261700Z 32006KT 290V350 9999 FEW034 24/14 Q1017 NOSIG
cycle: 17

Station Type Date Time Source
LEBB TAF 2021/07/26 12:27 UTC NOAA

TAF LEBB 261100Z 2612/2712 32008KT 9999 SCT040 TX25/2615Z TN15/2705Z

Example: see airport list